地図

経路データ

SID SEASON NUMBER BASIN SUBBASIN NAME ISO_TIME NATURE LAT LON WMO_WIND WMO_PRES WMO_AGENCY TRACK_TYPE DIST2LAND LANDFALL IFLAG USA_AGENCY USA_ATCF_ID USA_LAT USA_LON USA_RECORD USA_STATUS USA_WIND USA_PRES USA_SSHS USA_R34_NE USA_R34_SE USA_R34_SW USA_R34_NW USA_R50_NE USA_R50_SE USA_R50_SW USA_R50_NW USA_R64_NE USA_R64_SE USA_R64_SW USA_R64_NW USA_POCI USA_ROCI USA_RMW USA_EYE TOKYO_LAT TOKYO_LON TOKYO_GRADE TOKYO_WIND TOKYO_PRES TOKYO_R50_DIR TOKYO_R50_LONG TOKYO_R50_SHORT TOKYO_R30_DIR TOKYO_R30_LONG TOKYO_R30_SHORT TOKYO_LAND CMA_LAT CMA_LON CMA_CAT CMA_WIND CMA_PRES HKO_LAT HKO_LON HKO_CAT HKO_WIND HKO_PRES NEWDELHI_LAT NEWDELHI_LON NEWDELHI_GRADE NEWDELHI_WIND NEWDELHI_PRES NEWDELHI_CI NEWDELHI_DP NEWDELHI_POCI REUNION_LAT REUNION_LON REUNION_TYPE REUNION_WIND REUNION_PRES REUNION_TNUM REUNION_CI REUNION_RMW REUNION_R34_NE REUNION_R34_SE REUNION_R34_SW REUNION_R34_NW REUNION_R50_NE REUNION_R50_SE REUNION_R50_SW REUNION_R50_NW REUNION_R64_NE REUNION_R64_SE REUNION_R64_SW REUNION_R64_NW BOM_LAT BOM_LON BOM_TYPE BOM_WIND BOM_PRES BOM_TNUM BOM_CI BOM_RMW BOM_R34_NE BOM_R34_SE BOM_R34_SW BOM_R34_NW BOM_R50_NE BOM_R50_SE BOM_R50_SW BOM_R50_NW BOM_R64_NE BOM_R64_SE BOM_R64_SW BOM_R64_NW BOM_ROCI BOM_POCI BOM_EYE BOM_POS_METHOD BOM_PRES_METHOD NADI_LAT NADI_LON NADI_CAT NADI_WIND NADI_PRES WELLINGTON_LAT WELLINGTON_LON WELLINGTON_WIND WELLINGTON_PRES DS824_LAT DS824_LON DS824_STAGE DS824_WIND DS824_PRES TD9636_LAT TD9636_LON TD9636_STAGE TD9636_WIND TD9636_PRES TD9635_LAT TD9635_LON TD9635_WIND TD9635_PRES TD9635_ROCI NEUMANN_LAT NEUMANN_LON NEUMANN_CLASS NEUMANN_WIND NEUMANN_PRES MLC_LAT MLC_LON MLC_CLASS MLC_WIND MLC_PRES USA_GUST BOM_GUST BOM_GUST_PER REUNION_GUST REUNION_GUST_PER USA_SEAHGT USA_SEARAD_NE USA_SEARAD_SE USA_SEARAD_SW USA_SEARAD_NW STORM_SPEED STORM_DIR
1896319N06079 1896 47 NI BB NOT_NAMED 1896-11-14 00:00:00 TS 6.10000 79.2000 main 100 100 _________O____ -1 6.10000 79.2000 TC 30 6 290
1896319N06079 1896 47 NI BB NOT_NAMED 1896-11-14 03:00:00 TS 6.20005 78.9267 main 129 129 _________PO___ -1 6.25007 78.7900 TC 30 6.10000 79.2000 1 7 291
1896319N06079 1896 47 NI BB NOT_NAMED 1896-11-14 06:00:00 TS 6.33945 78.5694 main 154 154 _________OP___ -1 6.40000 78.4000 TC 30 6.24863 78.8236 1 8 292
1896319N06079 1896 47 NI BB NOT_NAMED 1896-11-14 09:00:00 TS 6.48471 78.2161 main 190 173 _________PP___ -1 6.54996 78.0425 TC 30 6.39770 78.4476 1 7 293
1896319N06079 1896 47 NI AS NOT_NAMED 1896-11-14 12:00:00 TS 6.62396 77.8864 main 173 145 _________OP___ -1 6.70000 77.7000 TC 30 6.54792 78.0729 1 7 293
1896319N06079 1896 47 NI AS NOT_NAMED 1896-11-14 15:00:00 TS 6.77499 77.5250 main 145 134 _________PO___ -1 6.84997 77.3500 TC 30 6.70000 77.7000 1 8 293
1896319N06079 1896 47 NI AS NOT_NAMED 1896-11-14 18:00:00 TS 6.92701 77.1653 main 134 120 _________OP___ -1 7.00000 77.0000 TC 30 6.85402 77.3306 1 8 293
1896319N06079 1896 47 NI AS NOT_NAMED 1896-11-14 21:00:00 TS 7.08247 76.8062 main 124 124 _________PP___ -1 7.15749 76.6425 TC 30 7.00745 76.9700 1 8 293
1896319N06079 1896 47 NI AS NOT_NAMED 1896-11-15 00:00:00 TS 7.22858 76.4622 main 133 133 _________OP___ -1 7.30000 76.3000 TC 30 7.15716 76.6244 1 7 292
1896319N06079 1896 47 NI AS NOT_NAMED 1896-11-15 03:00:00 TS 7.34999 76.1425 main 157 149 _________PO___ -1 7.39998 75.9850 TC 30 7.30000 76.3000 1 6 291
1896319N06079 1896 47 NI AS NOT_NAMED 1896-11-15 06:00:00 TS 7.45992 75.8557 main 157 157 _________OP___ -1 7.50000 75.7000 TC 30 7.41984 76.0114 1 6 294
1896319N06079 1896 47 NI AS NOT_NAMED 1896-11-15 09:00:00 TS 7.58486 75.5998 main 172 172 _________PP___ -1 7.63494 75.4575 TC 30 7.53478 75.7422 1 6 298
1896319N06079 1896 47 NI AS NOT_NAMED 1896-11-15 12:00:00 TS 7.72867 75.3385 main 188 180 _________OP___ -1 7.80000 75.2000 TC 30 7.65734 75.4770 1 6 299
1896319N06079 1896 47 NI AS NOT_NAMED 1896-11-15 15:00:00 TS 7.89626 75.0288 main 199 199 _________PO___ -1 7.99252 74.8575 TC 30 7.80000 75.2000 1 7 300
1896319N06079 1896 47 NI AS NOT_NAMED 1896-11-15 18:00:00 TS 8.09739 74.6826 main 217 217 _________OP___ -1 8.20000 74.5000 TC 30 7.99478 74.8652 1 8 302
1896319N06079 1896 47 NI AS NOT_NAMED 1896-11-15 21:00:00 TS 8.31132 74.3489 main 251 246 _________PP___ -1 8.41499 74.1775 TC 30 8.20765 74.5203 1 8 303
1896319N06079 1896 47 NI AS NOT_NAMED 1896-11-16 00:00:00 TS 8.50834 74.0451 main 272 268 _________OP___ -1 8.60000 73.9000 TC 30 8.41667 74.1902 1 7 302
1896319N06079 1896 47 NI AS NOT_NAMED 1896-11-16 03:00:00 TS 8.65749 73.7887 main 285 285 _________PO___ -1 8.71497 73.6775 TC 30 8.60000 73.9000 1 5 299
1896319N06079 1896 47 NI AS NOT_NAMED 1896-11-16 06:00:00 TS 8.76022 73.5949 main 304 304 _________OP___ -1 8.80000 73.5000 TC 30 8.72044 73.6898 1 4 299
1896319N06079 1896 47 NI AS NOT_NAMED 1896-11-16 09:00:00 TS 8.85361 73.4386 main 323 323 _________PP___ -1 8.89246 73.3575 TC 30 8.81476 73.5197 1 4 302
1896319N06079 1896 47 NI AS NOT_NAMED 1896-11-16 12:00:00 TS 8.95086 73.2824 main 332 332 _________OP___ -1 9.00000 73.2000 TC 30 8.90171 73.3648 1 4 301
1896319N06079 1896 47 NI AS NOT_NAMED 1896-11-16 15:00:00 TS 9.07126 73.0788 main 353 353 _________PO___ -1 9.14252 72.9575 TC 30 9.00000 73.2000 1 5 302
1896319N06079 1896 47 NI AS NOT_NAMED 1896-11-16 18:00:00 TS 9.21577 72.8467 main 383 378 _________OP___ -1 9.30000 72.7000 TC 30 9.13155 72.9934 1 5 304
1896319N06079 1896 47 NI AS NOT_NAMED 1896-11-16 21:00:00 TS 9.36372 72.6362 main 394 394 _________PP___ -1 9.44996 72.5000 TC 30 9.27747 72.7724 1 5 306
1896319N06079 1896 47 NI AS NOT_NAMED 1896-11-17 00:00:00 TS 9.51733 72.4201 main 410 406 _________OP___ -1 9.60000 72.3000 TC 30 9.43466 72.5403 1 5 304
1896319N06079 1896 47 NI AS NOT_NAMED 1896-11-17 03:00:00 TS 9.67125 72.1787 main 416 416 _________PO___ -1 9.74250 72.0575 TC 30 9.60000 72.3000 1 6 303
1896319N06079 1896 47 NI AS NOT_NAMED 1896-11-17 06:00:00 TS 9.83388 71.9306 main 436 430 _________OP___ -1 9.90000 71.8000 TC 30 9.76776 72.0612 1 6 305
1896319N06079 1896 47 NI AS NOT_NAMED 1896-11-17 09:00:00 TS 10.0175 71.6824 main 443 443 _________PP___ -1 10.0925 71.5500 TC 30 9.94243 71.8149 1 6 307
1896319N06079 1896 47 NI AS NOT_NAMED 1896-11-17 12:00:00 TS 10.2104 71.4306 main 461 456 _________OP___ -1 10.3000 71.3000 TC 30 10.1209 71.5612 1 6 308
1896319N06079 1896 47 NI AS NOT_NAMED 1896-11-17 15:00:00 TS 10.4037 71.1787 main 470 470 _________PO___ -1 10.5075 71.0575 TC 31 10.3000 71.3000 1 6 306
1896319N06079 1896 47 NI AS NOT_NAMED 1896-11-17 18:00:00 TS 10.5712 70.9200 main 490 490 _________OP___ -1 10.7000 70.8000 TC 32 10.4424 71.0399 1 6 300
1896319N06079 1896 47 NI AS NOT_NAMED 1896-11-17 21:00:00 TS 10.7087 70.6434 main 514 509 _________PP___ -1 10.8275 70.5148 TC 33 10.5899 70.7719 1 6 299
1896319N06079 1896 47 NI AS NOT_NAMED 1896-11-18 00:00:00 TS 10.8837 70.3465 main 534 534 _________OP___ -1 11.0000 70.2000 TC 34 10.7674 70.4930 1 8 306
1896319N06079 1896 47 NI AS NOT_NAMED 1896-11-18 03:00:00 TS 11.1563 70.0250 main 552 552 _________PO___ -1 11.3125 69.8500 TC 41 11.0000 70.2000 2 9 314
1896319N06079 1896 47 NI AS NOT_NAMED 1896-11-18 06:00:00 TS 11.5027 69.6866 main 573 573 _________OP___ -1 11.7000 69.5000 TC 49 11.3054 69.8733 2 10 318
1896319N06079 1896 47 NI AS NOT_NAMED 1896-11-18 09:00:00 TS 11.8763 69.3601 main 595 595 _________PP___ -1 12.0850 69.1849 TC 56 11.6677 69.5352 2 10 322
1896319N06079 1896 47 NI AS NOT_NAMED 1896-11-18 12:00:00 TS 12.2855 69.0522 main 606 606 _________OP___ -1 12.5000 68.9000 TC 64 12.0711 69.2045 2 10 326
1896319N06079 1896 47 NI AS NOT_NAMED 1896-11-18 15:00:00 TS 12.7212 68.7675 main 612 612 _________PO___ -1 12.9425 68.6349 TC 64 12.5000 68.9000 4 10 329
1896319N06079 1896 47 NI AS NOT_NAMED 1896-11-18 18:00:00 TS 13.1581 68.5109 main 620 616 _________OP___ -1 13.4000 68.4000 TC 64 12.9162 68.6218 4 10 332
1896319N06079 1896 47 NI AS NOT_NAMED 1896-11-18 21:00:00 TS 13.5987 68.2800 main 622 619 _________PP___ -1 13.8425 68.1849 TC 64 13.3550 68.3750 4 10 335
1896319N06079 1896 47 NI AS NOT_NAMED 1896-11-19 00:00:00 TS 14.0581 68.0828 main 619 614 _________OP___ -1 14.3000 68.0000 TC 64 13.8162 68.1657 4 10 339
1896319N06079 1896 47 NI AS NOT_NAMED 1896-11-19 03:00:00 TS 14.5425 67.9100 main 620 612 _________PO___ -1 14.7850 67.8201 TC 64 14.3000 68.0000 4 11 343
1896319N06079 1896 47 NI AS NOT_NAMED 1896-11-19 06:00:00 TS 15.0659 67.7747 main 609 606 _________OP___ -1 15.3000 67.7000 TC 64 14.8317 67.8494 4 11 350
1896319N06079 1896 47 NI AS NOT_NAMED 1896-11-19 09:00:00 TS 15.6261 67.7038 main 607 598 _________PP___ -1 15.8725 67.6624 TC 64 15.3798 67.7452 4 11 356
1896319N06079 1896 47 NI AS NOT_NAMED 1896-11-19 12:00:00 TS 16.1565 67.6967 main 595 563 _________OP___ -1 16.4000 67.7000 TC 64 15.9130 67.6933 4 10 2
1896319N06079 1896 47 NI AS NOT_NAMED 1896-11-19 15:00:00 TS 16.5900 67.7388 main 563 529 _________PO___ -1 16.7800 67.7775 TC 64 16.4000 67.7000 4 8 8
1896319N06079 1896 47 NI AS NOT_NAMED 1896-11-19 18:00:00 TS 16.9399 67.8136 main 529 486 _________OP___ -1 17.1000 67.9000 TC 64 16.7797 67.7273 4 7 14
1896319N06079 1896 47 NI AS NOT_NAMED 1896-11-19 21:00:00 TS 17.2710 67.9143 main 486 446 _________PP___ -1 17.4274 68.0128 TC 64 17.1145 67.8158 4 7 21
1896319N06079 1896 47 NI AS NOT_NAMED 1896-11-20 00:00:00 TS 17.6211 68.0857 main 446 398 _________OP___ -1 17.8000 68.2000 TC 64 17.4421 67.9715 4 9 29
1896319N06079 1896 47 NI AS NOT_NAMED 1896-11-20 03:00:00 TS 18.0425 68.3562 main 392 327 _________PO___ -1 18.2850 68.5124 TC 64 17.8000 68.2000 4 11 32
1896319N06079 1896 47 NI AS NOT_NAMED 1896-11-20 06:00:00 TS 18.5359 68.6971 main 327 258 _________OP___ -1 18.8000 68.9000 TC 64 18.2717 68.4941 4 12 35
1896319N06079 1896 47 NI AS NOT_NAMED 1896-11-20 09:00:00 TS 19.0263 69.0756 main 258 188 _________PP___ -1 19.2800 69.2925 TC 64 18.7727 68.8588 4 12 38
1896319N06079 1896 47 NI AS NOT_NAMED 1896-11-20 12:00:00 TS 19.4811 69.4846 main 188 137 _________OP___ -1 19.7000 69.7000 TC 64 19.2623 69.2692 4 11 43
1896319N06079 1896 47 NI AS NOT_NAMED 1896-11-20 15:00:00 TS 19.8649 69.8964 main 128 84 _________PO___ -1 20.0299 70.0928 TC 56 19.7000 69.7000 4 10 48
1896319N06079 1896 47 NI AS NOT_NAMED 1896-11-20 18:00:00 TS 20.1606 70.2884 main 76 35 _________OP___ -1 20.3000 70.5000 TC 49 20.0561 70.1297 4 10 54
1896319N06079 1896 47 NI AS NOT_NAMED 1896-11-20 21:00:00 TS 20.4269 70.7090 main 35 15 _________PP___ -1 20.5528 70.9396 TC 41 20.3430 70.5552 4 9 58
1896319N06079 1896 47 NI AS NOT_NAMED 1896-11-21 00:00:00 TS 20.6556 71.1187 main 11 11 _________OP___ -1 20.8000 71.4000 TC 34 20.5834 70.9780 4 7 60
1896319N06079 1896 47 NI AS NOT_NAMED 1896-11-21 03:00:00 NR 20.8000 71.4000 main 11 __________O___ -1 TC 20.8000 71.4000 2 6 61

IBTrACS Databaseについて

本データベースは、米国NOAAが公開する1842年以降の世界の熱帯低気圧のベストトラックデータアーカイブInternational Best Track Archive for Climate Stewardship (IBTrACS)を、ウェブで閲覧しやすい形式に変換したものです。

最終更新日:2021-10-25